sensor_id;sensor_type;location;lat;lon;timestamp;P1;durP1;ratioP1;P2;durP2;ratioP2
32611;SDS011;19030;49.478;8.986;2023-03-20T00:01:13;10.82;;;3.33;;
32611;SDS011;19030;49.478;8.986;2023-03-20T00:03:23;8.50;;;3.10;;
32611;SDS011;19030;49.478;8.986;2023-03-20T00:05:24;8.60;;;3.53;;
32611;SDS011;19030;49.478;8.986;2023-03-20T00:07:25;10.25;;;3.83;;
32611;SDS011;19030;49.478;8.986;2023-03-20T00:09:26;16.30;;;6.85;;
32611;SDS011;19030;49.478;8.986;2023-03-20T00:11:34;10.32;;;4.53;;
32611;SDS011;19030;49.478;8.986;2023-03-20T00:13:37;10.45;;;4.43;;
32611;SDS011;19030;49.478;8.986;2023-03-20T00:15:38;10.18;;;4.43;;
32611;SDS011;19030;49.478;8.986;2023-03-20T00:17:41;6.55;;;3.05;;
32611;SDS011;19030;49.478;8.986;2023-03-20T00:19:42;5.93;;;3.20;;
32611;SDS011;19030;49.478;8.986;2023-03-20T00:21:43;7.40;;;3.45;;
32611;SDS011;19030;49.478;8.986;2023-03-20T00:23:45;6.05;;;3.25;;
32611;SDS011;19030;49.478;8.986;2023-03-20T00:25:46;6.72;;;3.20;;
32611;SDS011;19030;49.478;8.986;2023-03-20T00:27:47;7.38;;;3.15;;
32611;SDS011;19030;49.478;8.986;2023-03-20T00:29:49;9.55;;;3.72;;
32611;SDS011;19030;49.478;8.986;2023-03-20T00:31:50;6.72;;;3.35;;
32611;SDS011;19030;49.478;8.986;2023-03-20T00:33:52;7.25;;;3.33;;
32611;SDS011;19030;49.478;8.986;2023-03-20T00:35:55;6.50;;;3.05;;
32611;SDS011;19030;49.478;8.986;2023-03-20T00:37:57;8.43;;;3.60;;
32611;SDS011;19030;49.478;8.986;2023-03-20T00:39:59;8.95;;;3.50;;
32611;SDS011;19030;49.478;8.986;2023-03-20T00:42:04;8.18;;;3.53;;
32611;SDS011;19030;49.478;8.986;2023-03-20T00:44:20;7.60;;;3.38;;
32611;SDS011;19030;49.478;8.986;2023-03-20T00:46:23;7.82;;;3.28;;
32611;SDS011;19030;49.478;8.986;2023-03-20T00:48:24;8.40;;;4.18;;
32611;SDS011;19030;49.478;8.986;2023-03-20T00:50:26;5.72;;;3.20;;
32611;SDS011;19030;49.478;8.986;2023-03-20T00:52:28;8.98;;;4.25;;
32611;SDS011;19030;49.478;8.986;2023-03-20T00:54:29;9.40;;;4.32;;
32611;SDS011;19030;49.478;8.986;2023-03-20T00:56:37;9.45;;;3.88;;
32611;SDS011;19030;49.478;8.986;2023-03-20T00:58:41;8.05;;;4.10;;
32611;SDS011;19030;49.478;8.986;2023-03-20T01:00:43;11.02;;;4.80;;
32611;SDS011;19030;49.478;8.986;2023-03-20T01:02:46;9.15;;;4.60;;
32611;SDS011;19030;49.478;8.986;2023-03-20T01:04:47;8.70;;;3.95;;
32611;SDS011;19030;49.478;8.986;2023-03-20T01:06:47;10.13;;;4.57;;
32611;SDS011;19030;49.478;8.986;2023-03-20T01:08:48;9.02;;;4.28;;
32611;SDS011;19030;49.478;8.986;2023-03-20T01:10:50;11.60;;;4.30;;
32611;SDS011;19030;49.478;8.986;2023-03-20T01:12:56;12.07;;;4.47;;
32611;SDS011;19030;49.478;8.986;2023-03-20T01:14:59;9.88;;;4.10;;
32611;SDS011;19030;49.478;8.986;2023-03-20T01:17:00;9.13;;;4.45;;
32611;SDS011;19030;49.478;8.986;2023-03-20T01:19:00;12.25;;;5.22;;
32611;SDS011;19030;49.478;8.986;2023-03-20T01:21:01;11.65;;;4.80;;
32611;SDS011;19030;49.478;8.986;2023-03-20T01:23:02;10.65;;;4.55;;
32611;SDS011;19030;49.478;8.986;2023-03-20T01:25:02;8.90;;;3.97;;
32611;SDS011;19030;49.478;8.986;2023-03-20T01:27:04;10.93;;;4.75;;
32611;SDS011;19030;49.478;8.986;2023-03-20T01:29:24;12.70;;;6.13;;
32611;SDS011;19030;49.478;8.986;2023-03-20T01:31:26;8.50;;;4.45;;
32611;SDS011;19030;49.478;8.986;2023-03-20T01:33:27;9.07;;;4.32;;
32611;SDS011;19030;49.478;8.986;2023-03-20T01:35:29;10.20;;;4.43;;
32611;SDS011;19030;49.478;8.986;2023-03-20T01:37:34;9.27;;;4.13;;
32611;SDS011;19030;49.478;8.986;2023-03-20T01:39:36;7.00;;;3.50;;
32611;SDS011;19030;49.478;8.986;2023-03-20T01:41:38;10.70;;;4.18;;
32611;SDS011;19030;49.478;8.986;2023-03-20T01:43:40;9.80;;;3.95;;
32611;SDS011;19030;49.478;8.986;2023-03-20T01:46:28;9.70;;;4.07;;
32611;SDS011;19030;49.478;8.986;2023-03-20T01:48:24;12.20;;;5.03;;
32611;SDS011;19030;49.478;8.986;2023-03-20T01:50:31;10.18;;;4.05;;
32611;SDS011;19030;49.478;8.986;2023-03-20T01:52:38;8.73;;;4.05;;
32611;SDS011;19030;49.478;8.986;2023-03-20T01:54:39;9.55;;;4.05;;
32611;SDS011;19030;49.478;8.986;2023-03-20T01:56:45;8.82;;;3.97;;
32611;SDS011;19030;49.478;8.986;2023-03-20T01:58:51;7.95;;;3.65;;
32611;SDS011;19030;49.478;8.986;2023-03-20T02:00:58;8.88;;;3.70;;
32611;SDS011;19030;49.478;8.986;2023-03-20T02:02:59;8.60;;;3.60;;
32611;SDS011;19030;49.478;8.986;2023-03-20T02:05:23;9.40;;;4.40;;
32611;SDS011;19030;49.478;8.986;2023-03-20T02:07:24;12.18;;;5.32;;
32611;SDS011;19030;49.478;8.986;2023-03-20T02:09:36;10.75;;;4.97;;
32611;SDS011;19030;49.478;8.986;2023-03-20T02:11:41;10.48;;;4.90;;
32611;SDS011;19030;49.478;8.986;2023-03-20T02:13:44;11.05;;;4.88;;
32611;SDS011;19030;49.478;8.986;2023-03-20T02:15:52;10.30;;;4.55;;
32611;SDS011;19030;49.478;8.986;2023-03-20T02:18:34;9.80;;;4.80;;
32611;SDS011;19030;49.478;8.986;2023-03-20T02:20:44;10.27;;;5.22;;
32611;SDS011;19030;49.478;8.986;2023-03-20T02:25:12;9.70;;;4.70;;
32611;SDS011;19030;49.478;8.986;2023-03-20T02:29:37;8.30;;;4.43;;
32611;SDS011;19030;49.478;8.986;2023-03-20T02:40:27;9.50;;;3.90;;
32611;SDS011;19030;49.478;8.986;2023-03-20T02:42:52;9.50;;;4.97;;
32611;SDS011;19030;49.478;8.986;2023-03-20T02:45:02;12.88;;;4.72;;
32611;SDS011;19030;49.478;8.986;2023-03-20T02:47:21;9.35;;;4.95;;
32611;SDS011;19030;49.478;8.986;2023-03-20T02:49:38;7.68;;;3.30;;
32611;SDS011;19030;49.478;8.986;2023-03-20T02:54:25;6.50;;;2.80;;
32611;SDS011;19030;49.478;8.986;2023-03-20T02:57:10;6.68;;;3.17;;
32611;SDS011;19030;49.478;8.986;2023-03-20T02:59:22;8.32;;;3.50;;
32611;SDS011;19030;49.478;8.986;2023-03-20T03:01:40;7.07;;;3.53;;
32611;SDS011;19030;49.478;8.986;2023-03-20T03:03:50;8.05;;;3.13;;
32611;SDS011;19030;49.478;8.986;2023-03-20T03:06:05;6.93;;;2.92;;
32611;SDS011;19030;49.478;8.986;2023-03-20T03:08:10;8.75;;;3.10;;
32611;SDS011;19030;49.478;8.986;2023-03-20T03:10:29;5.65;;;3.17;;
32611;SDS011;19030;49.478;8.986;2023-03-20T03:12:37;6.57;;;3.28;;
32611;SDS011;19030;49.478;8.986;2023-03-20T03:14:43;6.93;;;3.00;;
32611;SDS011;19030;49.478;8.986;2023-03-20T03:16:48;7.25;;;3.20;;
32611;SDS011;19030;49.478;8.986;2023-03-20T03:18:57;5.05;;;2.67;;
32611;SDS011;19030;49.478;8.986;2023-03-20T03:21:08;6.10;;;3.22;;
32611;SDS011;19030;49.478;8.986;2023-03-20T03:23:24;5.20;;;2.80;;
32611;SDS011;19030;49.478;8.986;2023-03-20T03:25:31;7.18;;;2.92;;
32611;SDS011;19030;49.478;8.986;2023-03-20T03:27:39;6.43;;;3.00;;
32611;SDS011;19030;49.478;8.986;2023-03-20T03:29:42;6.40;;;3.15;;
32611;SDS011;19030;49.478;8.986;2023-03-20T03:31:44;9.32;;;3.85;;
32611;SDS011;19030;49.478;8.986;2023-03-20T03:33:47;5.47;;;3.03;;
32611;SDS011;19030;49.478;8.986;2023-03-20T03:35:52;8.20;;;3.03;;
32611;SDS011;19030;49.478;8.986;2023-03-20T03:38:05;5.88;;;3.10;;
32611;SDS011;19030;49.478;8.986;2023-03-20T03:40:33;6.15;;;2.97;;
32611;SDS011;19030;49.478;8.986;2023-03-20T03:42:43;6.00;;;3.15;;
32611;SDS011;19030;49.478;8.986;2023-03-20T03:49:23;7.65;;;2.80;;
32611;SDS011;19030;49.478;8.986;2023-03-20T03:51:32;6.88;;;3.08;;
32611;SDS011;19030;49.478;8.986;2023-03-20T03:53:43;7.45;;;2.88;;
32611;SDS011;19030;49.478;8.986;2023-03-20T03:55:49;6.00;;;2.92;;
32611;SDS011;19030;49.478;8.986;2023-03-20T03:57:57;5.40;;;3.00;;
32611;SDS011;19030;49.478;8.986;2023-03-20T04:00:02;6.22;;;3.22;;
32611;SDS011;19030;49.478;8.986;2023-03-20T04:02:13;4.43;;;2.65;;
32611;SDS011;19030;49.478;8.986;2023-03-20T04:04:14;8.30;;;3.60;;
32611;SDS011;19030;49.478;8.986;2023-03-20T04:06:17;7.10;;;3.05;;
32611;SDS011;19030;49.478;8.986;2023-03-20T04:08:18;7.00;;;3.28;;
32611;SDS011;19030;49.478;8.986;2023-03-20T04:10:18;7.93;;;2.90;;
32611;SDS011;19030;49.478;8.986;2023-03-20T04:12:33;8.45;;;3.15;;
32611;SDS011;19030;49.478;8.986;2023-03-20T04:14:36;6.13;;;3.17;;
32611;SDS011;19030;49.478;8.986;2023-03-20T04:16:36;7.55;;;3.60;;
32611;SDS011;19030;49.478;8.986;2023-03-20T04:18:37;6.22;;;3.05;;
32611;SDS011;19030;49.478;8.986;2023-03-20T04:20:38;7.03;;;3.15;;
32611;SDS011;19030;49.478;8.986;2023-03-20T04:22:39;5.53;;;2.92;;
32611;SDS011;19030;49.478;8.986;2023-03-20T04:24:41;5.55;;;2.92;;
32611;SDS011;19030;49.478;8.986;2023-03-20T04:26:41;5.95;;;2.88;;
32611;SDS011;19030;49.478;8.986;2023-03-20T04:28:43;5.82;;;2.85;;
32611;SDS011;19030;49.478;8.986;2023-03-20T04:31:02;6.72;;;3.78;;
32611;SDS011;19030;49.478;8.986;2023-03-20T04:33:30;7.28;;;3.28;;
32611;SDS011;19030;49.478;8.986;2023-03-20T04:35:54;7.05;;;3.08;;
32611;SDS011;19030;49.478;8.986;2023-03-20T04:37:55;6.20;;;2.92;;
32611;SDS011;19030;49.478;8.986;2023-03-20T04:39:58;5.70;;;3.13;;
32611;SDS011;19030;49.478;8.986;2023-03-20T04:41:59;7.38;;;2.90;;
32611;SDS011;19030;49.478;8.986;2023-03-20T04:44:00;8.70;;;3.55;;
32611;SDS011;19030;49.478;8.986;2023-03-20T04:46:01;8.35;;;3.15;;
32611;SDS011;19030;49.478;8.986;2023-03-20T04:48:03;6.25;;;3.17;;
32611;SDS011;19030;49.478;8.986;2023-03-20T04:50:05;5.95;;;3.20;;
32611;SDS011;19030;49.478;8.986;2023-03-20T04:52:06;7.28;;;3.20;;
32611;SDS011;19030;49.478;8.986;2023-03-20T04:54:13;9.35;;;3.28;;
32611;SDS011;19030;49.478;8.986;2023-03-20T04:56:15;8.20;;;3.35;;
32611;SDS011;19030;49.478;8.986;2023-03-20T04:58:16;8.77;;;3.65;;
32611;SDS011;19030;49.478;8.986;2023-03-20T05:00:17;8.68;;;3.80;;
32611;SDS011;19030;49.478;8.986;2023-03-20T05:02:18;8.18;;;3.40;;
32611;SDS011;19030;49.478;8.986;2023-03-20T05:04:19;6.13;;;3.42;;
32611;SDS011;19030;49.478;8.986;2023-03-20T05:06:20;5.97;;;3.35;;
32611;SDS011;19030;49.478;8.986;2023-03-20T05:08:22;7.80;;;3.20;;
32611;SDS011;19030;49.478;8.986;2023-03-20T05:10:26;7.10;;;3.45;;
32611;SDS011;19030;49.478;8.986;2023-03-20T05:12:33;9.88;;;3.30;;
32611;SDS011;19030;49.478;8.986;2023-03-20T05:14:57;5.93;;;3.42;;
32611;SDS011;19030;49.478;8.986;2023-03-20T05:17:16;6.47;;;3.38;;
32611;SDS011;19030;49.478;8.986;2023-03-20T05:19:48;9.10;;;3.50;;
32611;SDS011;19030;49.478;8.986;2023-03-20T05:22:10;8.68;;;4.10;;
32611;SDS011;19030;49.478;8.986;2023-03-20T05:24:27;5.97;;;3.05;;
32611;SDS011;19030;49.478;8.986;2023-03-20T05:26:46;6.45;;;3.30;;
32611;SDS011;19030;49.478;8.986;2023-03-20T05:29:06;5.90;;;3.28;;
32611;SDS011;19030;49.478;8.986;2023-03-20T05:31:35;7.75;;;3.35;;
32611;SDS011;19030;49.478;8.986;2023-03-20T05:34:11;6.60;;;3.78;;
32611;SDS011;19030;49.478;8.986;2023-03-20T05:36:41;7.60;;;3.13;;
32611;SDS011;19030;49.478;8.986;2023-03-20T05:39:08;7.88;;;3.47;;
32611;SDS011;19030;49.478;8.986;2023-03-20T05:41:44;6.43;;;3.42;;
32611;SDS011;19030;49.478;8.986;2023-03-20T05:44:13;9.18;;;5.93;;
32611;SDS011;19030;49.478;8.986;2023-03-20T05:46:22;6.68;;;3.70;;
32611;SDS011;19030;49.478;8.986;2023-03-20T05:48:41;6.93;;;3.38;;
32611;SDS011;19030;49.478;8.986;2023-03-20T05:50:42;9.15;;;3.25;;
32611;SDS011;19030;49.478;8.986;2023-03-20T05:52:50;9.57;;;3.90;;
32611;SDS011;19030;49.478;8.986;2023-03-20T05:55:09;7.20;;;3.15;;
32611;SDS011;19030;49.478;8.986;2023-03-20T05:57:15;6.35;;;3.22;;
32611;SDS011;19030;49.478;8.986;2023-03-20T05:59:25;6.30;;;3.20;;
32611;SDS011;19030;49.478;8.986;2023-03-20T06:01:44;7.40;;;3.30;;
32611;SDS011;19030;49.478;8.986;2023-03-20T06:03:56;9.75;;;3.47;;
32611;SDS011;19030;49.478;8.986;2023-03-20T06:06:17;10.80;;;3.83;;
32611;SDS011;19030;49.478;8.986;2023-03-20T06:08:22;8.57;;;4.25;;
32611;SDS011;19030;49.478;8.986;2023-03-20T06:10:23;9.88;;;3.50;;
32611;SDS011;19030;49.478;8.986;2023-03-20T06:12:32;7.50;;;3.58;;
32611;SDS011;19030;49.478;8.986;2023-03-20T06:14:33;8.52;;;3.50;;
32611;SDS011;19030;49.478;8.986;2023-03-20T06:16:39;7.65;;;3.53;;
32611;SDS011;19030;49.478;8.986;2023-03-20T06:18:40;7.68;;;3.85;;
32611;SDS011;19030;49.478;8.986;2023-03-20T06:20:42;8.65;;;3.88;;
32611;SDS011;19030;49.478;8.986;2023-03-20T06:22:43;13.70;;;6.63;;
32611;SDS011;19030;49.478;8.986;2023-03-20T06:24:45;14.75;;;6.72;;
32611;SDS011;19030;49.478;8.986;2023-03-20T06:26:46;12.10;;;4.97;;
32611;SDS011;19030;49.478;8.986;2023-03-20T06:28:47;8.00;;;3.80;;
32611;SDS011;19030;49.478;8.986;2023-03-20T06:30:50;8.65;;;3.92;;
32611;SDS011;19030;49.478;8.986;2023-03-20T06:32:53;12.10;;;4.50;;
32611;SDS011;19030;49.478;8.986;2023-03-20T06:34:56;9.18;;;5.22;;
32611;SDS011;19030;49.478;8.986;2023-03-20T06:36:56;10.80;;;4.30;;
32611;SDS011;19030;49.478;8.986;2023-03-20T06:38:57;11.32;;;5.80;;
32611;SDS011;19030;49.478;8.986;2023-03-20T06:41:00;10.68;;;4.35;;
32611;SDS011;19030;49.478;8.986;2023-03-20T06:43:01;10.30;;;5.18;;
32611;SDS011;19030;49.478;8.986;2023-03-20T06:45:12;10.25;;;5.53;;
32611;SDS011;19030;49.478;8.986;2023-03-20T06:47:23;10.30;;;5.82;;
32611;SDS011;19030;49.478;8.986;2023-03-20T06:49:24;9.75;;;4.25;;
32611;SDS011;19030;49.478;8.986;2023-03-20T06:51:25;7.40;;;3.85;;
32611;SDS011;19030;49.478;8.986;2023-03-20T06:53:27;6.93;;;3.85;;
32611;SDS011;19030;49.478;8.986;2023-03-20T06:55:36;8.20;;;3.90;;
32611;SDS011;19030;49.478;8.986;2023-03-20T06:57:37;8.68;;;3.70;;
32611;SDS011;19030;49.478;8.986;2023-03-20T06:59:37;9.88;;;3.83;;
32611;SDS011;19030;49.478;8.986;2023-03-20T07:01:39;10.07;;;4.50;;
32611;SDS011;19030;49.478;8.986;2023-03-20T07:03:40;8.13;;;4.25;;
32611;SDS011;19030;49.478;8.986;2023-03-20T07:05:42;10.40;;;4.63;;
32611;SDS011;19030;49.478;8.986;2023-03-20T07:07:44;9.05;;;4.63;;
32611;SDS011;19030;49.478;8.986;2023-03-20T07:09:46;9.73;;;5.22;;
32611;SDS011;19030;49.478;8.986;2023-03-20T07:11:47;8.98;;;4.50;;
32611;SDS011;19030;49.478;8.986;2023-03-20T07:13:47;11.27;;;5.63;;
32611;SDS011;19030;49.478;8.986;2023-03-20T07:16:00;11.45;;;6.28;;
32611;SDS011;19030;49.478;8.986;2023-03-20T07:18:03;13.73;;;7.28;;
32611;SDS011;19030;49.478;8.986;2023-03-20T07:20:05;11.52;;;7.13;;
32611;SDS011;19030;49.478;8.986;2023-03-20T07:22:08;13.50;;;7.82;;
32611;SDS011;19030;49.478;8.986;2023-03-20T07:24:19;12.02;;;7.53;;
32611;SDS011;19030;49.478;8.986;2023-03-20T07:26:19;15.27;;;9.13;;
32611;SDS011;19030;49.478;8.986;2023-03-20T07:28:20;17.65;;;8.85;;
32611;SDS011;19030;49.478;8.986;2023-03-20T07:30:26;13.65;;;7.97;;
32611;SDS011;19030;49.478;8.986;2023-03-20T07:32:29;14.43;;;8.27;;
32611;SDS011;19030;49.478;8.986;2023-03-20T07:34:29;13.75;;;8.32;;
32611;SDS011;19030;49.478;8.986;2023-03-20T07:36:32;16.05;;;8.15;;
32611;SDS011;19030;49.478;8.986;2023-03-20T07:38:32;18.05;;;11.77;;
32611;SDS011;19030;49.478;8.986;2023-03-20T07:40:41;19.70;;;11.63;;
32611;SDS011;19030;49.478;8.986;2023-03-20T07:42:45;19.67;;;13.30;;
32611;SDS011;19030;49.478;8.986;2023-03-20T07:45:09;24.40;;;13.10;;
32611;SDS011;19030;49.478;8.986;2023-03-20T07:47:10;21.58;;;14.23;;
32611;SDS011;19030;49.478;8.986;2023-03-20T07:49:10;21.17;;;13.02;;
32611;SDS011;19030;49.478;8.986;2023-03-20T07:51:12;20.58;;;13.20;;
32611;SDS011;19030;49.478;8.986;2023-03-20T07:53:12;22.60;;;12.38;;
32611;SDS011;19030;49.478;8.986;2023-03-20T07:55:13;20.00;;;12.90;;
32611;SDS011;19030;49.478;8.986;2023-03-20T07:57:16;20.35;;;13.02;;
32611;SDS011;19030;49.478;8.986;2023-03-20T07:59:17;20.60;;;12.88;;
32611;SDS011;19030;49.478;8.986;2023-03-20T08:01:18;23.40;;;14.43;;
32611;SDS011;19030;49.478;8.986;2023-03-20T08:03:18;20.38;;;13.45;;
32611;SDS011;19030;49.478;8.986;2023-03-20T08:05:19;25.65;;;17.60;;
32611;SDS011;19030;49.478;8.986;2023-03-20T08:07:20;22.58;;;14.68;;
32611;SDS011;19030;49.478;8.986;2023-03-20T08:09:20;23.65;;;15.80;;
32611;SDS011;19030;49.478;8.986;2023-03-20T08:11:21;25.58;;;16.90;;
32611;SDS011;19030;49.478;8.986;2023-03-20T08:13:22;24.90;;;17.02;;
32611;SDS011;19030;49.478;8.986;2023-03-20T08:15:22;27.15;;;16.30;;
32611;SDS011;19030;49.478;8.986;2023-03-20T08:17:23;25.80;;;16.80;;
32611;SDS011;19030;49.478;8.986;2023-03-20T08:19:23;22.00;;;14.93;;
32611;SDS011;19030;49.478;8.986;2023-03-20T08:21:28;28.20;;;16.90;;
32611;SDS011;19030;49.478;8.986;2023-03-20T08:23:29;23.48;;;15.07;;
32611;SDS011;19030;49.478;8.986;2023-03-20T08:25:30;23.17;;;15.43;;
32611;SDS011;19030;49.478;8.986;2023-03-20T08:27:32;23.55;;;15.20;;
32611;SDS011;19030;49.478;8.986;2023-03-20T08:29:33;21.83;;;15.70;;
32611;SDS011;19030;49.478;8.986;2023-03-20T08:31:34;20.60;;;14.88;;
32611;SDS011;19030;49.478;8.986;2023-03-20T08:33:35;21.25;;;14.52;;
32611;SDS011;19030;49.478;8.986;2023-03-20T08:35:36;23.10;;;14.45;;
32611;SDS011;19030;49.478;8.986;2023-03-20T08:37:37;20.20;;;13.20;;
32611;SDS011;19030;49.478;8.986;2023-03-20T08:39:37;21.35;;;13.55;;
32611;SDS011;19030;49.478;8.986;2023-03-20T08:41:38;22.98;;;13.23;;
32611;SDS011;19030;49.478;8.986;2023-03-20T08:43:40;20.30;;;13.27;;
32611;SDS011;19030;49.478;8.986;2023-03-20T08:45:41;20.77;;;13.50;;
32611;SDS011;19030;49.478;8.986;2023-03-20T08:47:42;20.95;;;12.50;;
32611;SDS011;19030;49.478;8.986;2023-03-20T08:49:47;22.60;;;13.60;;
32611;SDS011;19030;49.478;8.986;2023-03-20T08:51:47;21.48;;;14.05;;
32611;SDS011;19030;49.478;8.986;2023-03-20T08:53:48;20.23;;;14.55;;
32611;SDS011;19030;49.478;8.986;2023-03-20T08:55:49;20.05;;;12.52;;
32611;SDS011;19030;49.478;8.986;2023-03-20T08:57:50;19.42;;;13.10;;
32611;SDS011;19030;49.478;8.986;2023-03-20T08:59:51;16.52;;;10.48;;
32611;SDS011;19030;49.478;8.986;2023-03-20T09:01:51;19.15;;;12.52;;
32611;SDS011;19030;49.478;8.986;2023-03-20T09:03:52;20.60;;;12.23;;
32611;SDS011;19030;49.478;8.986;2023-03-20T09:05:52;20.63;;;12.48;;
32611;SDS011;19030;49.478;8.986;2023-03-20T09:07:53;22.50;;;13.50;;
32611;SDS011;19030;49.478;8.986;2023-03-20T09:09:53;21.77;;;13.05;;
32611;SDS011;19030;49.478;8.986;2023-03-20T09:11:54;20.02;;;12.85;;
32611;SDS011;19030;49.478;8.986;2023-03-20T09:13:56;21.33;;;11.93;;
32611;SDS011;19030;49.478;8.986;2023-03-20T09:15:58;20.30;;;12.65;;
32611;SDS011;19030;49.478;8.986;2023-03-20T09:17:58;20.17;;;12.20;;
32611;SDS011;19030;49.478;8.986;2023-03-20T09:19:59;19.77;;;11.75;;
32611;SDS011;19030;49.478;8.986;2023-03-20T09:22:00;21.75;;;11.82;;
32611;SDS011;19030;49.478;8.986;2023-03-20T09:24:00;19.98;;;11.63;;
32611;SDS011;19030;49.478;8.986;2023-03-20T09:26:01;19.48;;;10.98;;
32611;SDS011;19030;49.478;8.986;2023-03-20T09:28:02;21.05;;;11.35;;
32611;SDS011;19030;49.478;8.986;2023-03-20T09:30:03;20.67;;;11.65;;
32611;SDS011;19030;49.478;8.986;2023-03-20T09:32:05;18.88;;;10.00;;
32611;SDS011;19030;49.478;8.986;2023-03-20T09:34:05;18.17;;;11.02;;
32611;SDS011;19030;49.478;8.986;2023-03-20T09:36:06;19.58;;;11.07;;
32611;SDS011;19030;49.478;8.986;2023-03-20T09:38:10;19.00;;;10.35;;
32611;SDS011;19030;49.478;8.986;2023-03-20T09:40:25;18.73;;;10.98;;
32611;SDS011;19030;49.478;8.986;2023-03-20T09:47:45;20.25;;;11.40;;
32611;SDS011;19030;49.478;8.986;2023-03-20T09:50:05;20.77;;;10.52;;
32611;SDS011;19030;49.478;8.986;2023-03-20T09:52:23;36.97;;;21.20;;
32611;SDS011;19030;49.478;8.986;2023-03-20T09:56:42;36.33;;;21.38;;
32611;SDS011;19030;49.478;8.986;2023-03-20T09:58:44;25.35;;;12.70;;
32611;SDS011;19030;49.478;8.986;2023-03-20T10:00:54;44.60;;;23.42;;
32611;SDS011;19030;49.478;8.986;2023-03-20T10:02:58;43.88;;;21.45;;
32611;SDS011;19030;49.478;8.986;2023-03-20T10:04:59;66.68;;;37.95;;
32611;SDS011;19030;49.478;8.986;2023-03-20T10:07:05;39.50;;;23.10;;
32611;SDS011;19030;49.478;8.986;2023-03-20T10:09:29;27.80;;;14.02;;
32611;SDS011;19030;49.478;8.986;2023-03-20T10:14:00;27.27;;;15.63;;
32611;SDS011;19030;49.478;8.986;2023-03-20T10:16:36;22.48;;;12.90;;
32611;SDS011;19030;49.478;8.986;2023-03-20T10:18:48;23.35;;;12.85;;
32611;SDS011;19030;49.478;8.986;2023-03-20T10:20:58;22.77;;;13.77;;
32611;SDS011;19030;49.478;8.986;2023-03-20T10:25:35;24.33;;;12.93;;
32611;SDS011;19030;49.478;8.986;2023-03-20T10:27:57;21.55;;;12.73;;
32611;SDS011;19030;49.478;8.986;2023-03-20T10:32:32;22.30;;;11.50;;
32611;SDS011;19030;49.478;8.986;2023-03-20T10:34:47;23.52;;;12.95;;
32611;SDS011;19030;49.478;8.986;2023-03-20T10:37:03;21.30;;;12.38;;
32611;SDS011;19030;49.478;8.986;2023-03-20T10:42:12;22.17;;;11.95;;
32611;SDS011;19030;49.478;8.986;2023-03-20T10:44:19;25.58;;;12.23;;
32611;SDS011;19030;49.478;8.986;2023-03-20T10:46:29;22.52;;;11.63;;
32611;SDS011;19030;49.478;8.986;2023-03-20T10:48:35;20.50;;;11.43;;
32611;SDS011;19030;49.478;8.986;2023-03-20T10:50:47;25.08;;;11.45;;
32611;SDS011;19030;49.478;8.986;2023-03-20T10:52:52;20.83;;;11.43;;
32611;SDS011;19030;49.478;8.986;2023-03-20T10:55:17;24.65;;;12.10;;
32611;SDS011;19030;49.478;8.986;2023-03-20T10:57:22;20.02;;;11.05;;
32611;SDS011;19030;49.478;8.986;2023-03-20T11:01:27;24.92;;;12.25;;
32611;SDS011;19030;49.478;8.986;2023-03-20T11:03:29;18.15;;;10.40;;
32611;SDS011;19030;49.478;8.986;2023-03-20T11:05:33;27.23;;;11.95;;
32611;SDS011;19030;49.478;8.986;2023-03-20T11:07:35;24.10;;;10.95;;
32611;SDS011;19030;49.478;8.986;2023-03-20T11:09:37;19.40;;;9.65;;
32611;SDS011;19030;49.478;8.986;2023-03-20T11:11:37;21.80;;;10.93;;
32611;SDS011;19030;49.478;8.986;2023-03-20T11:13:43;17.70;;;10.10;;
32611;SDS011;19030;49.478;8.986;2023-03-20T11:15:44;17.50;;;9.68;;
32611;SDS011;19030;49.478;8.986;2023-03-20T11:17:49;18.90;;;9.60;;
32611;SDS011;19030;49.478;8.986;2023-03-20T11:20:07;17.27;;;9.32;;
32611;SDS011;19030;49.478;8.986;2023-03-20T11:22:23;17.15;;;9.77;;
32611;SDS011;19030;49.478;8.986;2023-03-20T11:24:41;15.98;;;9.63;;
32611;SDS011;19030;49.478;8.986;2023-03-20T11:26:44;15.77;;;9.63;;
32611;SDS011;19030;49.478;8.986;2023-03-20T11:28:46;18.02;;;9.55;;
32611;SDS011;19030;49.478;8.986;2023-03-20T11:30:49;15.70;;;8.70;;
32611;SDS011;19030;49.478;8.986;2023-03-20T11:32:50;15.40;;;8.95;;
32611;SDS011;19030;49.478;8.986;2023-03-20T11:34:54;19.20;;;9.50;;
32611;SDS011;19030;49.478;8.986;2023-03-20T11:36:57;16.85;;;8.55;;
32611;SDS011;19030;49.478;8.986;2023-03-20T11:39:09;15.52;;;8.68;;
32611;SDS011;19030;49.478;8.986;2023-03-20T11:41:16;15.57;;;8.45;;
32611;SDS011;19030;49.478;8.986;2023-03-20T11:43:22;13.82;;;8.43;;
32611;SDS011;19030;49.478;8.986;2023-03-20T11:45:25;18.40;;;7.68;;
32611;SDS011;19030;49.478;8.986;2023-03-20T11:47:34;15.50;;;8.38;;
32611;SDS011;19030;49.478;8.986;2023-03-20T11:49:45;14.20;;;8.40;;
32611;SDS011;19030;49.478;8.986;2023-03-20T11:51:49;16.17;;;8.35;;
32611;SDS011;19030;49.478;8.986;2023-03-20T11:56:02;18.20;;;8.45;;
32611;SDS011;19030;49.478;8.986;2023-03-20T11:58:13;15.32;;;8.10;;
32611;SDS011;19030;49.478;8.986;2023-03-20T12:00:20;15.27;;;8.80;;
32611;SDS011;19030;49.478;8.986;2023-03-20T12:02:25;15.43;;;9.05;;
32611;SDS011;19030;49.478;8.986;2023-03-20T12:06:38;13.60;;;7.22;;
32611;SDS011;19030;49.478;8.986;2023-03-20T12:08:45;15.18;;;8.23;;
32611;SDS011;19030;49.478;8.986;2023-03-20T12:10:58;14.10;;;7.35;;
32611;SDS011;19030;49.478;8.986;2023-03-20T12:13:04;14.73;;;7.15;;
32611;SDS011;19030;49.478;8.986;2023-03-20T12:17:29;16.70;;;9.30;;
32611;SDS011;19030;49.478;8.986;2023-03-20T12:19:43;13.75;;;6.70;;
32611;SDS011;19030;49.478;8.986;2023-03-20T12:21:51;14.48;;;7.78;;
32611;SDS011;19030;49.478;8.986;2023-03-20T12:24:30;13.20;;;7.60;;
32611;SDS011;19030;49.478;8.986;2023-03-20T12:29:07;11.20;;;6.63;;
32611;SDS011;19030;49.478;8.986;2023-03-20T12:31:29;12.65;;;7.25;;
32611;SDS011;19030;49.478;8.986;2023-03-20T12:33:51;10.38;;;5.63;;
32611;SDS011;19030;49.478;8.986;2023-03-20T12:36:07;11.60;;;5.85;;
32611;SDS011;19030;49.478;8.986;2023-03-20T12:38:25;10.98;;;5.72;;
32611;SDS011;19030;49.478;8.986;2023-03-20T12:40:33;10.80;;;6.20;;
32611;SDS011;19030;49.478;8.986;2023-03-20T12:45:11;12.65;;;6.22;;
32611;SDS011;19030;49.478;8.986;2023-03-20T12:47:24;11.25;;;5.93;;
32611;SDS011;19030;49.478;8.986;2023-03-20T12:49:49;10.82;;;5.63;;
32611;SDS011;19030;49.478;8.986;2023-03-20T12:52:01;13.75;;;6.07;;
32611;SDS011;19030;49.478;8.986;2023-03-20T12:54:24;9.73;;;5.10;;
32611;SDS011;19030;49.478;8.986;2023-03-20T12:58:51;9.60;;;4.35;;
32611;SDS011;19030;49.478;8.986;2023-03-20T13:00:59;11.23;;;5.03;;
32611;SDS011;19030;49.478;8.986;2023-03-20T13:10:07;9.10;;;4.55;;
32611;SDS011;19030;49.478;8.986;2023-03-20T13:12:33;9.38;;;5.00;;
32611;SDS011;19030;49.478;8.986;2023-03-20T13:14:57;10.05;;;5.20;;
32611;SDS011;19030;49.478;8.986;2023-03-20T13:19:41;9.30;;;5.03;;
32611;SDS011;19030;49.478;8.986;2023-03-20T13:22:16;11.55;;;5.43;;
32611;SDS011;19030;49.478;8.986;2023-03-20T13:27:19;9.70;;;5.30;;
32611;SDS011;19030;49.478;8.986;2023-03-20T13:31:51;9.68;;;5.15;;
32611;SDS011;19030;49.478;8.986;2023-03-20T13:34:01;9.10;;;5.20;;
32611;SDS011;19030;49.478;8.986;2023-03-20T13:38:19;9.82;;;5.13;;
32611;SDS011;19030;49.478;8.986;2023-03-20T13:40:27;25.75;;;11.45;;
32611;SDS011;19030;49.478;8.986;2023-03-20T13:42:32;49.65;;;24.88;;
32611;SDS011;19030;49.478;8.986;2023-03-20T13:44:37;25.50;;;11.70;;
32611;SDS011;19030;49.478;8.986;2023-03-20T13:46:44;12.27;;;6.15;;